Time;durP1;ratioP1;P1;durP2;ratioP2;P2;SDS_P1;SDS_P2;PMS_P1;PMS_P2;Temp;Humidity;BMP_temperature;BMP_pressure;BME280_temperature;BME280_humidity;BME280_pressure;Samples;Min_cycle;Max_cycle;Signal;HPM_P1;HPM_P2
2024/01/18 00:01:13;;;;;;;5.75;1.40;;;-0.90;99.90;;;;;;5079788;28;20048;-61
2024/01/18 00:03:40;;;;;;;3.92;1.10;;;-0.70;99.90;;;;;;5077762;28;20045;-61
2024/01/18 00:06:07;;;;;;;7.53;1.30;;;-0.60;99.90;;;;;;5078831;28;20063;-61
2024/01/18 00:08:32;;;;;;;2.80;1.02;;;-1.50;99.90;;;;;;5079050;28;20040;-61
2024/01/18 00:11:00;;;;;;;6.05;0.95;;;-1.60;99.90;;;;;;5079095;28;20040;-61
2024/01/18 00:13:26;;;;;;;4.63;0.90;;;-0.40;99.90;;;;;;5079261;28;20048;-61
2024/01/18 00:15:52;;;;;;;4.05;1.00;;;-0.40;99.90;;;;;;5061215;28;20048;-61
2024/01/18 00:18:18;;;;;;;3.10;1.10;;;-0.50;99.90;;;;;;5079397;28;20036;-61
2024/01/18 00:20:43;;;;;;;7.13;1.55;;;-1.60;99.90;;;;;;5061152;28;20433;-62
2024/01/18 00:23:09;;;;;;;5.82;1.02;;;-1.40;99.90;;;;;;5078597;28;20044;-62
2024/01/18 00:25:35;;;;;;;3.22;1.00;;;-0.60;99.90;;;;;;5079038;28;20139;-61
2024/01/18 00:28:01;;;;;;;2.97;0.90;;;-1.50;99.90;;;;;;5077401;28;20052;-62
2024/01/18 00:30:26;;;;;;;3.17;1.10;;;-0.80;99.90;;;;;;5061260;28;20041;-62
2024/01/18 00:32:52;;;;;;;3.15;1.45;;;-0.70;99.90;;;;;;5078954;28;20072;-61
2024/01/18 00:35:18;;;;;;;4.45;1.00;;;-1.60;99.90;;;;;;5043642;28;20041;-61
2024/01/18 00:37:44;;;;;;;5.18;1.00;;;-1.80;99.90;;;;;;5060864;28;20040;-61
2024/01/18 00:40:13;;;;;;;2.80;0.90;;;-1.20;99.90;;;;;;5060959;28;20040;-61
2024/01/18 00:42:39;;;;;;;4.95;1.40;;;-1.20;99.90;;;;;;5044178;28;20088;-61
2024/01/18 00:45:05;;;;;;;4.88;1.15;;;-1.60;99.90;;;;;;5078533;28;20412;-61
2024/01/18 00:47:31;;;;;;;8.05;1.27;;;-1.20;99.90;;;;;;5078237;28;20032;-61
2024/01/18 00:49:57;;;;;;;4.47;1.23;;;-1.60;99.90;;;;;;5078801;28;20113;-61
2024/01/18 00:52:22;;;;;;;9.52;2.10;;;-1.30;99.90;;;;;;5060814;28;20051;-61
2024/01/18 00:54:48;;;;;;;9.52;1.83;;;-1.00;99.90;;;;;;5044103;28;20041;-62
2024/01/18 00:57:14;;;;;;;7.50;2.00;;;-1.90;99.90;;;;;;5078612;28;20100;-61
2024/01/18 00:59:39;;;;;;;5.82;1.75;;;-1.00;99.90;;;;;;5078519;28;20040;-61
2024/01/18 01:02:05;;;;;;;6.13;1.92;;;-1.20;99.90;;;;;;5078455;28;20044;-61
2024/01/18 01:04:31;;;;;;;7.13;1.40;;;-1.10;99.90;;;;;;5076727;28;20059;-61
2024/01/18 01:06:57;;;;;;;8.32;1.60;;;-1.60;99.90;;;;;;5060411;28;20043;-61
2024/01/18 01:09:23;;;;;;;5.40;1.05;;;-1.00;99.90;;;;;;5078859;28;20037;-61
2024/01/18 01:11:49;;;;;;;7.35;1.40;;;-1.00;99.90;;;;;;5078642;28;20051;-61
2024/01/18 01:14:14;;;;;;;9.05;1.35;;;-0.90;99.90;;;;;;5060641;28;20052;-61
2024/01/18 01:16:40;;;;;;;5.20;1.17;;;-1.30;99.90;;;;;;5010610;28;20041;-61
2024/01/18 01:19:06;;;;;;;5.03;0.93;;;-1.10;99.90;;;;;;5078234;28;20453;-61
2024/01/18 01:21:31;;;;;;;4.07;0.88;;;-1.80;99.90;;;;;;5076978;28;20036;-61
2024/01/18 01:23:57;;;;;;;6.70;1.33;;;-1.00;99.90;;;;;;5077063;28;20050;-61
2024/01/18 01:26:23;;;;;;;4.15;0.82;;;-1.90;99.90;;;;;;5060591;28;20509;-61
2024/01/18 01:28:49;;;;;;;8.32;1.67;;;-1.20;99.90;;;;;;5060425;28;20041;-61
2024/01/18 01:31:15;;;;;;;5.60;0.93;;;-2.00;99.90;;;;;;5044139;28;20222;-61
2024/01/18 01:33:42;;;;;;;3.42;0.98;;;-1.00;99.90;;;;;;5078149;28;20049;-62
2024/01/18 01:36:08;;;;;;;4.78;0.73;;;-1.70;99.90;;;;;;5077776;28;20119;-60
2024/01/18 01:38:33;;;;;;;5.75;1.10;;;-1.50;99.90;;;;;;5078119;28;20436;-61
2024/01/18 01:41:00;;;;;;;5.30;0.98;;;-1.00;99.90;;;;;;5060372;28;20033;-61
2024/01/18 01:43:27;;;;;;;4.80;0.93;;;-1.20;99.90;;;;;;5078330;28;20079;-61
2024/01/18 01:45:53;;;;;;;2.25;0.80;;;-0.90;99.90;;;;;;5079835;28;20047;-61
2024/01/18 01:48:19;;;;;;;4.25;0.93;;;-1.90;99.90;;;;;;5080640;28;20064;-61
2024/01/18 01:50:46;;;;;;;3.33;0.70;;;-0.90;99.90;;;;;;5064024;28;20053;-61
2024/01/18 01:53:14;;;;;;;4.80;1.55;;;-2.00;99.90;;;;;;5081650;28;20044;-61
2024/01/18 01:55:41;;;;;;;2.35;0.80;;;-1.90;99.90;;;;;;5064158;28;20049;-61
2024/01/18 01:58:08;;;;;;;7.20;0.90;;;-1.90;99.90;;;;;;5081738;28;20123;-61
2024/01/18 02:00:34;;;;;;;4.32;0.80;;;-1.10;99.90;;;;;;5081992;28;20048;-61
2024/01/18 02:03:00;;;;;;;5.47;0.80;;;-2.00;99.90;;;;;;5063835;28;20040;-62
2024/01/18 02:05:27;;;;;;;3.60;0.90;;;-1.00;99.90;;;;;;5063587;28;20086;-61
2024/01/18 02:07:53;;;;;;;2.97;1.00;;;-1.60;99.90;;;;;;5046894;28;20037;-61
2024/01/18 02:10:19;;;;;;;5.30;0.80;;;-2.00;99.90;;;;;;5081292;28;20045;-61
2024/01/18 02:12:46;;;;;;;5.60;0.80;;;-1.20;99.90;;;;;;5063575;28;20048;-61
2024/01/18 02:15:12;;;;;;;3.55;0.80;;;-1.00;99.90;;;;;;5081356;28;20040;-61
2024/01/18 02:17:38;;;;;;;3.35;0.88;;;-1.60;99.90;;;;;;5081291;28;20047;-61
2024/01/18 02:20:04;;;;;;;2.03;0.60;;;-2.20;99.90;;;;;;5081553;28;20071;-60
2024/01/18 02:22:32;;;;;;;7.78;1.02;;;-1.40;99.90;;;;;;5081622;28;20041;-62
2024/01/18 02:25:21;;;;;;;2.13;0.60;;;-2.30;99.90;;;;;;5046718;28;20033;-61
2024/01/18 02:27:47;;;;;;;5.85;0.93;;;-2.20;99.90;;;;;;5081128;28;20068;-61
2024/01/18 02:30:13;;;;;;;3.88;0.93;;;-2.10;99.90;;;;;;5081031;28;20087;-61
2024/01/18 02:32:38;;;;;;;2.95;0.85;;;-1.20;99.90;;;;;;5063243;28;20103;-61
2024/01/18 02:35:04;;;;;;;4.00;0.90;;;-1.30;99.90;;;;;;5062937;28;20084;-59
2024/01/18 02:37:31;;;;;;;6.93;1.02;;;-1.90;99.90;;;;;;5063036;28;20037;-61
2024/01/18 02:39:57;;;;;;;5.78;0.90;;;-1.30;99.90;;;;;;5080848;28;20070;-61
2024/01/18 02:42:23;;;;;;;4.75;1.20;;;-1.30;99.90;;;;;;5062886;28;20037;-62
2024/01/18 02:44:48;;;;;;;6.07;1.00;;;-1.30;99.90;;;;;;5079210;28;20051;-61
2024/01/18 02:47:14;;;;;;;5.57;1.13;;;-1.30;99.90;;;;;;5062940;28;20048;-62
2024/01/18 02:49:40;;;;;;;3.22;0.82;;;-2.20;99.90;;;;;;5080803;28;20046;-61
2024/01/18 02:52:06;;;;;;;2.78;0.70;;;-2.30;99.90;;;;;;5062770;28;20032;-61
2024/01/18 02:54:31;;;;;;;3.95;0.80;;;-1.60;99.90;;;;;;5080780;28;20122;-61
2024/01/18 02:56:57;;;;;;;5.57;1.05;;;-2.30;99.90;;;;;;5080108;28;20064;-61
2024/01/18 02:59:23;;;;;;;3.50;0.93;;;-1.20;99.90;;;;;;5079178;28;20040;-61
2024/01/18 03:01:48;;;;;;;5.88;1.02;;;-1.30;99.90;;;;;;5062553;28;20300;-61
2024/01/18 03:04:14;;;;;;;3.45;0.80;;;-2.30;99.90;;;;;;5080725;28;20094;-61
2024/01/18 03:06:40;;;;;;;2.72;0.70;;;-1.80;99.90;;;;;;5028918;28;20048;-61
2024/01/18 03:09:05;;;;;;;5.03;0.80;;;-1.30;99.90;;;;;;5080787;28;20052;-61
2024/01/18 03:11:31;;;;;;;3.13;0.75;;;-1.20;99.90;;;;;;5080757;28;20045;-61
2024/01/18 03:13:57;;;;;;;3.38;0.90;;;-1.70;99.90;;;;;;5045834;28;20533;-62
2024/01/18 03:16:23;;;;;;;7.30;1.02;;;-2.30;99.90;;;;;;5062022;28;20416;-61
2024/01/18 03:18:49;;;;;;;6.78;1.13;;;-1.50;99.90;;;;;;5062210;28;20056;-61
2024/01/18 03:21:15;;;;;;;2.70;0.80;;;-2.20;99.90;;;;;;5079911;28;20071;-61
2024/01/18 03:23:40;;;;;;;2.60;0.65;;;-2.40;99.90;;;;;;5045257;28;20158;-61
2024/01/18 03:26:07;;;;;;;6.75;1.02;;;-1.30;99.90;;;;;;5080390;28;20040;-61
2024/01/18 03:28:33;;;;;;;4.63;0.82;;;-1.50;99.90;;;;;;5062148;28;20045;-62
2024/01/18 03:30:58;;;;;;;1.98;0.47;;;-1.10;99.90;;;;;;5080013;28;20071;-61
2024/01/18 03:33:24;;;;;;;3.53;0.75;;;-1.10;99.90;;;;;;5080170;28;20041;-61
2024/01/18 03:35:50;;;;;;;4.60;1.45;;;-2.10;99.90;;;;;;5079636;28;20086;-61
2024/01/18 03:38:15;;;;;;;2.83;0.70;;;-2.00;99.90;;;;;;5061853;28;20055;-61
2024/01/18 03:40:41;;;;;;;1.42;1.02;;;-0.90;99.90;;;;;;5079710;28;20088;-61
2024/01/18 03:43:07;;;;;;;1.85;0.60;;;-1.90;99.90;;;;;;5079341;28;20048;-62
2024/01/18 03:45:33;;;;;;;1.83;0.40;;;-1.80;99.90;;;;;;5080112;28;20115;-59
2024/01/18 03:47:59;;;;;;;2.72;0.60;;;-1.70;99.90;;;;;;5061817;28;20084;-61
2024/01/18 03:50:25;;;;;;;9.15;1.10;;;-0.60;99.90;;;;;;5080182;28;20161;-61
2024/01/18 03:52:50;;;;;;;8.20;0.80;;;-0.20;99.90;;;;;;5079389;28;20571;-59
2024/01/18 03:55:16;;;;;;;2.15;0.60;;;-0.30;99.90;;;;;;5079300;28;20032;-62
2024/01/18 03:57:42;;;;;;;3.13;0.55;;;-1.60;99.90;;;;;;5061534;28;20120;-61
2024/01/18 04:00:09;;;;;;;2.65;0.80;;;-0.30;99.90;;;;;;5061520;28;20064;-61
2024/01/18 04:02:35;;;;;;;3.63;0.65;;;-1.60;99.90;;;;;;5061507;28;20084;-61
2024/01/18 04:05:01;;;;;;;4.75;0.50;;;-0.30;99.90;;;;;;5079209;28;20040;-61
2024/01/18 04:07:27;;;;;;;4.63;0.63;;;-1.50;99.90;;;;;;5061548;28;20051;-61
2024/01/18 04:09:53;;;;;;;4.88;0.65;;;-0.10;99.90;;;;;;5079548;28;20055;-62
2024/01/18 04:12:18;;;;;;;3.95;0.63;;;-1.40;99.90;;;;;;5060863;28;20048;-61
2024/01/18 04:14:44;;;;;;;4.07;0.50;;;-1.00;99.90;;;;;;5079152;28;20044;-61
2024/01/18 04:17:13;;;;;;;3.40;0.57;;;-1.50;99.90;;;;;;5079149;28;20109;-62
2024/01/18 04:19:39;;;;;;;2.17;0.40;;;-1.20;99.90;;;;;;5079445;28;20120;-61
2024/01/18 04:22:06;;;;;;;1.98;0.45;;;-1.10;99.90;;;;;;5079286;28;20052;-61
2024/01/18 04:24:32;;;;;;;2.83;0.75;;;-0.30;99.90;;;;;;5079086;28;20040;-61
2024/01/18 04:26:58;;;;;;;3.10;0.75;;;-1.40;99.90;;;;;;5078773;28;20083;-62
2024/01/18 04:29:23;;;;;;;2.60;0.50;;;-1.60;99.90;;;;;;5078751;28;20067;-61
2024/01/18 04:31:49;;;;;;;6.45;0.60;;;-1.90;99.90;;;;;;5079159;28;20052;-61
2024/01/18 04:34:15;;;;;;;2.03;0.50;;;-1.30;99.90;;;;;;5060616;28;20036;-62
2024/01/18 04:36:41;;;;;;;3.83;0.50;;;-1.90;99.90;;;;;;5027932;28;20634;-62
2024/01/18 04:39:09;;;;;;;3.42;0.60;;;-1.80;99.90;;;;;;5078755;28;20079;-62
2024/01/18 04:41:35;;;;;;;3.22;0.75;;;-1.00;99.90;;;;;;5079136;28;20420;-61
2024/01/18 04:44:01;;;;;;;4.13;0.80;;;-1.50;99.90;;;;;;5077615;28;20045;-61
2024/01/18 04:46:27;;;;;;;2.53;0.50;;;-0.80;99.90;;;;;;5078728;28;20048;-62
2024/01/18 04:48:53;;;;;;;2.47;0.68;;;-2.10;99.90;;;;;;5078664;28;20047;-61
2024/01/18 04:51:20;;;;;;;4.05;0.60;;;-2.10;99.90;;;;;;5060607;28;20044;-61
2024/01/18 04:53:46;;;;;;;2.40;0.80;;;-2.10;99.90;;;;;;5078588;28;20095;-61
2024/01/18 04:56:12;;;;;;;4.53;0.70;;;-2.10;99.90;;;;;;5078690;28;20044;-61
2024/01/18 04:58:37;;;;;;;3.53;0.65;;;-1.30;99.90;;;;;;5078980;28;20045;-61
2024/01/18 05:01:03;;;;;;;3.17;0.70;;;-1.00;99.90;;;;;;5060774;28;20072;-61
2024/01/18 05:03:29;;;;;;;3.22;0.93;;;-2.20;99.90;;;;;;5060734;28;20045;-61
2024/01/18 05:05:58;;;;;;;4.35;0.60;;;-0.90;99.90;;;;;;5078051;28;20036;-61
2024/01/18 05:08:24;;;;;;;0.82;0.50;;;-0.90;99.90;;;;;;5078264;28;20062;-61
2024/01/18 05:10:50;;;;;;;4.00;0.50;;;-0.90;99.90;;;;;;5078273;28;20056;-61
2024/01/18 05:13:16;;;;;;;2.92;0.80;;;-1.00;99.90;;;;;;5078818;28;20043;-61
2024/01/18 05:15:42;;;;;;;3.08;0.60;;;-2.10;99.90;;;;;;5060316;28;20394;-61
2024/01/18 05:18:08;;;;;;;1.08;0.40;;;-1.10;99.90;;;;;;5078680;28;20407;-62
2024/01/18 05:20:34;;;;;;;4.65;0.85;;;-1.20;99.90;;;;;;5079258;28;20095;-61
2024/01/18 05:23:00;;;;;;;1.65;0.40;;;-2.10;99.90;;;;;;5081087;28;20052;-61
2024/01/18 05:25:26;;;;;;;1.05;0.32;;;-2.20;99.90;;;;;;5064689;28;20513;-61
2024/01/18 05:27:51;;;;;;;3.25;0.50;;;-2.00;99.90;;;;;;5030789;28;20055;-61
2024/01/18 05:30:17;;;;;;;4.53;0.60;;;-1.60;99.90;;;;;;5082512;28;20044;-60
2024/01/18 05:32:43;;;;;;;3.70;0.63;;;-2.00;99.90;;;;;;5082430;28;20036;-61
2024/01/18 05:35:09;;;;;;;7.32;1.05;;;-0.90;99.90;;;;;;5082376;28;20087;-61
2024/01/18 05:37:35;;;;;;;4.55;0.80;;;-0.90;99.90;;;;;;5080824;28;20071;-61
2024/01/18 05:40:00;;;;;;;2.50;0.60;;;-1.10;99.90;;;;;;5064007;28;20044;-61
2024/01/18 05:42:27;;;;;;;2.40;0.52;;;-2.10;99.90;;;;;;5082110;28;20201;-61
2024/01/18 05:44:53;;;;;;;1.65;0.60;;;-1.10;99.90;;;;;;5081902;28;20040;-61
2024/01/18 05:47:20;;;;;;;4.13;0.73;;;-1.80;99.90;;;;;;5063985;28;20067;-61
2024/01/18 05:49:46;;;;;;;3.30;0.50;;;-0.80;99.90;;;;;;5081972;28;20048;-61
2024/01/18 05:52:12;;;;;;;3.95;0.60;;;-1.20;99.90;;;;;;5064117;28;20052;-60
2024/01/18 05:54:37;;;;;;;1.55;0.45;;;-1.10;99.90;;;;;;5081918;28;20127;-61
2024/01/18 05:57:04;;;;;;;3.60;0.40;;;-0.90;99.90;;;;;;5081735;28;20052;-61
2024/01/18 05:59:30;;;;;;;2.85;0.80;;;-0.80;99.90;;;;;;5081278;28;20048;-61
2024/01/18 06:01:56;;;;;;;1.70;0.70;;;-0.50;99.90;;;;;;5063584;28;20064;-61
2024/01/18 06:04:24;;;;;;;5.35;1.65;;;-1.70;99.90;;;;;;5081283;28;20036;-61
2024/01/18 06:06:49;;;;;;;2.38;0.60;;;-0.50;99.90;;;;;;5081462;28;20054;-61
2024/01/18 06:09:16;;;;;;;2.50;0.70;;;-1.00;99.90;;;;;;5081900;28;20488;-61
2024/01/18 06:11:44;;;;;;;4.78;0.80;;;-0.70;99.90;;;;;;5081528;28;20127;-61
2024/01/18 06:14:10;;;;;;;3.70;0.70;;;-0.50;99.90;;;;;;5081541;28;20047;-60
2024/01/18 06:16:35;;;;;;;2.47;0.60;;;-1.50;99.90;;;;;;5077528;28;20068;-61
2024/01/18 06:19:01;;;;;;;2.83;0.60;;;-0.60;99.90;;;;;;5059299;28;20110;-60
2024/01/18 06:21:27;;;;;;;1.75;0.73;;;-1.90;99.90;;;;;;5059361;28;20418;-61
2024/01/18 06:23:53;;;;;;;2.35;0.65;;;-1.80;99.90;;;;;;5059833;28;20100;-61
2024/01/18 06:26:18;;;;;;;2.75;0.70;;;-1.00;99.90;;;;;;5043132;28;20425;-61
2024/01/18 06:28:44;;;;;;;2.97;0.70;;;-0.70;99.90;;;;;;5077154;28;20040;-61
2024/01/18 06:31:10;;;;;;;5.47;0.80;;;-0.70;99.90;;;;;;5077580;28;20150;-61
2024/01/18 06:33:36;;;;;;;7.18;0.85;;;-0.80;99.90;;;;;;5074567;28;20076;-61
2024/01/18 06:36:02;;;;;;;2.40;0.70;;;-1.20;99.90;;;;;;5076996;28;20113;-61
2024/01/18 06:38:29;;;;;;;3.85;0.60;;;-1.90;99.90;;;;;;5041880;28;20048;-60
2024/01/18 06:40:58;;;;;;;2.45;0.70;;;-1.40;99.90;;;;;;5058357;28;20041;-61
2024/01/18 06:43:25;;;;;;;3.65;0.77;;;-0.90;99.90;;;;;;5042136;28;20096;-60
2024/01/18 06:45:54;;;;;;;3.65;0.80;;;-1.80;99.90;;;;;;5075686;28;20037;-61
2024/01/18 06:48:23;;;;;;;3.25;0.60;;;-1.80;99.90;;;;;;5059139;28;20074;-61
2024/01/18 06:50:52;;;;;;;3.20;0.90;;;-0.40;99.90;;;;;;5058859;28;20464;-61
2024/01/18 06:53:18;;;;;;;4.05;0.50;;;-1.40;99.90;;;;;;5058510;28;20523;-61
2024/01/18 06:55:43;;;;;;;3.88;0.80;;;-0.60;99.90;;;;;;5076932;28;20532;-61
2024/01/18 06:58:09;;;;;;;3.78;0.68;;;-0.70;99.90;;;;;;5042184;28;20037;-61
2024/01/18 07:00:35;;;;;;;3.70;0.77;;;-0.50;99.90;;;;;;5059201;28;20047;-61
2024/01/18 07:03:01;;;;;;;2.00;0.52;;;-0.40;99.90;;;;;;5075349;28;20100;-61
2024/01/18 07:05:27;;;;;;;1.02;0.40;;;-0.50;99.90;;;;;;5076236;28;20087;-61
2024/01/18 07:07:52;;;;;;;1.83;0.57;;;-1.50;99.90;;;;;;5058297;28;20510;-62
2024/01/18 07:10:18;;;;;;;4.97;0.70;;;-0.60;99.90;;;;;;5042074;28;20048;-61
2024/01/18 07:12:44;;;;;;;1.65;0.60;;;-0.70;99.90;;;;;;5058235;28;20116;-61
2024/01/18 07:15:10;;;;;;;2.13;0.63;;;-0.60;99.90;;;;;;5076297;28;20500;-61
2024/01/18 07:17:36;;;;;;;2.50;0.73;;;-1.10;99.90;;;;;;5058122;28;20052;-60
2024/01/18 07:20:03;;;;;;;4.70;1.08;;;-0.90;99.90;;;;;;5076368;28;20040;-61
2024/01/18 07:22:29;;;;;;;3.22;0.60;;;-1.60;99.90;;;;;;5076372;28;20066;-61
2024/01/18 07:24:54;;;;;;;5.32;0.70;;;-0.60;99.90;;;;;;5058112;28;20877;-61
2024/01/18 07:27:20;;;;;;;1.52;0.52;;;-0.90;99.90;;;;;;5076266;28;20095;-61
2024/01/18 07:29:49;;;;;;;3.70;0.93;;;-1.10;99.90;;;;;;5057655;28;20097;-61
2024/01/18 07:32:15;;;;;;;2.00;0.68;;;-0.60;99.90;;;;;;5074387;28;20049;-61
2024/01/18 07:34:41;;;;;;;5.32;0.80;;;-0.60;99.90;;;;;;5074688;28;20197;-61
2024/01/18 07:37:08;;;;;;;2.90;0.70;;;-0.80;99.90;;;;;;5076122;28;20048;-58
2024/01/18 07:39:34;;;;;;;3.08;0.90;;;-0.70;99.90;;;;;;5075841;28;20055;-58
2024/01/18 07:42:00;;;;;;;6.90;0.80;;;-1.70;99.90;;;;;;5057931;28;20056;-58
2024/01/18 07:44:27;;;;;;;4.45;0.70;;;-1.20;99.90;;;;;;5075531;28;20052;-58
2024/01/18 07:46:53;;;;;;;3.08;0.77;;;-1.70;99.90;;;;;;5075536;28;20036;-59
2024/01/18 07:49:20;;;;;;;0.98;0.43;;;-1.50;99.90;;;;;;5075818;28;20546;-57
2024/01/18 07:51:46;;;;;;;3.65;0.63;;;-1.40;99.90;;;;;;5057703;28;20130;-58
2024/01/18 07:54:13;;;;;;;2.42;0.40;;;-2.00;99.90;;;;;;5057726;28;20109;-59
2024/01/18 07:56:38;;;;;;;5.20;0.70;;;-1.70;99.90;;;;;;5075742;28;20048;-58
2024/01/18 07:59:04;;;;;;;7.30;0.70;;;-1.60;99.90;;;;;;5075244;28;20071;-61
2024/01/18 08:01:30;;;;;;;1.85;0.60;;;-1.80;99.90;;;;;;5075568;28;20510;-62
2024/01/18 08:03:56;;;;;;;2.78;0.82;;;-1.80;99.90;;;;;;5057144;28;20123;-61
2024/01/18 08:06:21;;;;;;;4.80;0.73;;;-1.60;99.90;;;;;;5075155;28;20048;-61
2024/01/18 08:08:47;;;;;;;3.80;0.88;;;-1.20;99.90;;;;;;5057488;28;20577;-61
2024/01/18 08:11:13;;;;;;;4.45;0.95;;;-1.00;99.90;;;;;;5074611;28;20052;-62
2024/01/18 08:13:42;;;;;;;2.47;0.80;;;-1.30;99.90;;;;;;5075660;28;20155;-62
2024/01/18 08:16:09;;;;;;;3.92;1.27;;;-0.40;99.90;;;;;;5074998;28;20520;-61
2024/01/18 08:18:36;;;;;;;6.35;2.08;;;-0.70;99.90;;;;;;5075332;28;20052;-62
2024/01/18 08:21:02;;;;;;;5.90;1.10;;;-0.70;99.90;;;;;;5075030;28;20583;-62
2024/01/18 08:23:28;;;;;;;11.80;1.25;;;-1.30;99.90;;;;;;5057283;28;20040;-61
2024/01/18 08:25:54;;;;;;;4.00;0.80;;;-0.40;99.90;;;;;;5075199;28;20041;-61
2024/01/18 08:28:21;;;;;;;5.35;1.00;;;-1.20;99.90;;;;;;5056760;28;20048;-61
2024/01/18 08:30:47;;;;;;;2.13;0.80;;;-0.30;99.90;;;;;;5075289;28;20515;-61
2024/01/18 08:33:14;;;;;;;2.88;0.65;;;-1.40;99.90;;;;;;5076302;28;20037;-61
2024/01/18 08:35:40;;;;;;;1.80;0.52;;;-0.30;99.90;;;;;;5078380;28;20046;-61
2024/01/18 08:38:06;;;;;;;3.28;0.80;;;-1.00;99.90;;;;;;5076569;28;20053;-61
2024/01/18 08:40:32;;;;;;;3.90;1.00;;;-0.60;99.90;;;;;;5060434;28;20523;-61
2024/01/18 08:42:59;;;;;;;5.03;1.02;;;-1.00;99.90;;;;;;5059447;28;20108;-61
2024/01/18 08:45:24;;;;;;;3.00;0.95;;;-0.20;99.90;;;;;;5079038;28;20055;-61
2024/01/18 08:47:50;;;;;;;3.85;0.88;;;-1.50;99.90;;;;;;5078811;28;20083;-62
2024/01/18 08:50:16;;;;;;;2.75;0.77;;;-0.40;99.90;;;;;;5060849;28;20423;-62
2024/01/18 08:52:42;;;;;;;3.00;0.77;;;-1.10;99.90;;;;;;5060448;28;20049;-62
2024/01/18 08:55:08;;;;;;;3.30;0.70;;;-0.30;99.90;;;;;;5077753;28;20047;-62
2024/01/18 08:57:34;;;;;;;5.50;0.70;;;-0.70;99.90;;;;;;5078140;28;20044;-62
2024/01/18 09:00:00;;;;;;;5.95;1.38;;;-0.40;99.90;;;;;;5078446;28;20068;-62
2024/01/18 09:02:26;;;;;;;3.08;0.80;;;-1.10;99.90;;;;;;5060851;28;20056;-62
2024/01/18 09:04:51;;;;;;;7.63;1.00;;;-0.70;99.90;;;;;;5043863;28;20051;-62
2024/01/18 09:07:17;;;;;;;6.30;1.05;;;0.10;99.90;;;;;;5078919;28;20044;-62
2024/01/18 09:09:44;;;;;;;3.38;0.93;;;0.10;99.90;;;;;;5078420;28;20064;-61
2024/01/18 09:12:11;;;;;;;7.05;1.10;;;0.10;99.90;;;;;;5078403;28;20075;-62
2024/01/18 09:14:36;;;;;;;3.45;0.95;;;-0.90;99.90;;;;;;5078400;28;20097;-61
2024/01/18 09:17:02;;;;;;;3.03;0.95;;;-0.40;99.90;;;;;;5076978;28;20090;-62
2024/01/18 09:19:30;;;;;;;4.30;1.13;;;-0.70;99.90;;;;;;5059425;28;20025;-62
2024/01/18 09:21:56;;;;;;;6.65;1.27;;;-0.70;99.90;;;;;;5059414;28;20045;-61
2024/01/18 09:24:23;;;;;;;6.10;1.48;;;-0.80;99.90;;;;;;5078246;28;20045;-61
2024/01/18 09:26:48;;;;;;;5.95;1.30;;;-0.80;99.90;;;;;;5060098;28;20044;-62
2024/01/18 09:29:14;;;;;;;3.53;1.05;;;0.00;99.90;;;;;;5074448;28;20051;-62
2024/01/18 09:31:40;;;;;;;3.88;0.93;;;0.20;99.90;;;;;;5064160;28;20048;-63
2024/01/18 09:34:06;;;;;;;5.55;1.10;;;0.40;99.90;;;;;;5064770;28;20062;-63
2024/01/18 09:36:32;;;;;;;7.20;1.13;;;-0.40;99.90;;;;;;4997683;28;20037;-63
2024/01/18 09:38:58;;;;;;;3.95;1.33;;;0.30;99.90;;;;;;5065426;28;20121;-61
2024/01/18 09:41:26;;;;;;;7.53;1.10;;;-0.60;99.90;;;;;;5065478;28;20040;-61
2024/01/18 09:43:57;;;;;;;4.70;0.93;;;-0.70;99.90;;;;;;5048081;28;20439;-61
2024/01/18 09:46:23;;;;;;;3.47;1.00;;;0.50;99.90;;;;;;5065472;28;20075;-61
2024/01/18 09:48:49;;;;;;;4.53;1.23;;;0.60;99.90;;;;;;5064787;28;20032;-62
2024/01/18 09:51:15;;;;;;;7.65;1.33;;;0.60;99.90;;;;;;5064874;28;20045;-61
2024/01/18 09:53:47;;;;;;;5.28;1.10;;;-0.50;99.90;;;;;;5065408;28;20047;-62
2024/01/18 09:56:25;;;;;;;6.22;1.27;;;-0.40;99.90;;;;;;5065719;28;20075;-61
2024/01/18 09:58:52;;;;;;;4.50;1.30;;;0.50;99.90;;;;;;5063360;28;20072;-61
2024/01/18 10:01:22;;;;;;;5.88;1.25;;;0.40;99.90;;;;;;5046190;28;20036;-61
2024/01/18 10:03:48;;;;;;;3.70;1.13;;;0.50;99.90;;;;;;5045446;28;20053;-61
2024/01/18 10:06:15;;;;;;;5.80;1.20;;;0.50;99.90;;;;;;5063774;28;20354;-60
2024/01/18 10:08:41;;;;;;;5.78;1.50;;;-0.20;99.90;;;;;;5067841;28;20048;-59
2024/01/18 10:11:07;;;;;;;4.43;1.50;;;0.70;99.90;;;;;;5069232;28;20106;-60
2024/01/18 10:13:53;;;;;;;4.75;1.33;;;0.30;99.90;;;;;;5050581;28;20104;-60
2024/01/18 10:16:30;;;;;;;6.13;1.20;;;-0.10;99.90;;;;;;5068854;28;20064;-59
2024/01/18 10:18:57;;;;;;;3.20;1.23;;;0.80;99.90;;;;;;5068067;28;20051;-59
2024/01/18 10:21:23;;;;;;;4.68;1.20;;;1.10;99.90;;;;;;5068456;28;20068;-60
2024/01/18 10:23:51;;;;;;;3.38;1.02;;;1.20;99.90;;;;;;5051643;28;20096;-58
2024/01/18 10:26:17;;;;;;;8.98;1.83;;;0.30;99.90;;;;;;5069139;28;20040;-59
2024/01/18 10:28:43;;;;;;;5.22;1.40;;;0.50;99.90;;;;;;5067628;28;20103;-59
2024/01/18 10:31:09;;;;;;;6.78;1.20;;;1.30;99.90;;;;;;5050153;28;20117;-60
2024/01/18 10:33:35;;;;;;;3.90;0.90;;;1.00;99.90;;;;;;5067859;28;20159;-60
2024/01/18 10:36:01;;;;;;;3.83;1.00;;;0.40;99.90;;;;;;5067887;28;20048;-59
2024/01/18 10:38:30;;;;;;;5.05;1.30;;;1.30;99.90;;;;;;5033374;28;20044;-59
2024/01/18 10:40:59;;;;;;;4.38;1.17;;;0.60;99.90;;;;;;5050408;28;20048;-60
2024/01/18 10:43:35;;;;;;;3.80;0.93;;;1.30;99.90;;;;;;5067824;28;20047;-60
2024/01/18 10:46:02;;;;;;;5.32;1.27;;;0.90;99.90;;;;;;5033428;28;20143;-59
2024/01/18 10:48:29;;;;;;;5.22;1.05;;;1.60;99.90;;;;;;5068003;28;20820;-60
2024/01/18 10:50:56;;;;;;;4.28;1.15;;;1.60;99.90;;;;;;5068097;28;20111;-59
2024/01/18 10:53:29;;;;;;;3.33;1.20;;;1.60;99.90;;;;;;5049640;28;20036;-59
2024/01/18 10:55:55;;;;;;;4.03;1.20;;;1.50;99.90;;;;;;5068036;28;20428;-59
2024/01/18 10:58:21;;;;;;;4.20;1.00;;;0.80;99.90;;;;;;5067698;28;20037;-59
2024/01/18 11:00:48;;;;;;;4.40;1.00;;;0.60;99.90;;;;;;5067314;28;20040;-59
2024/01/18 11:03:15;;;;;;;7.05;1.45;;;1.60;99.90;;;;;;5033096;28;20052;-59
2024/01/18 11:05:46;;;;;;;3.55;1.00;;;1.00;99.90;;;;;;5067654;28;20056;-60
2024/01/18 11:08:12;;;;;;;3.40;1.10;;;1.30;99.90;;;;;;5067249;28;20721;-59
2024/01/18 11:10:39;;;;;;;6.70;1.10;;;0.90;99.90;;;;;;5066634;28;20076;-59
2024/01/18 11:13:07;;;;;;;5.30;1.30;;;1.20;99.90;;;;;;5048584;28;20048;-59
2024/01/18 11:15:34;;;;;;;7.47;1.15;;;1.10;99.90;;;;;;5066909;28;20052;-60
2024/01/18 11:18:09;;;;;;;4.65;1.00;;;2.00;99.90;;;;;;5066899;28;20462;-60
2024/01/18 11:20:54;;;;;;;3.58;1.00;;;1.80;99.90;;;;;;5016226;28;20037;-60
2024/01/18 11:23:26;;;;;;;4.28;1.00;;;1.40;99.90;;;;;;5067041;28;20083;-60
2024/01/18 11:25:52;;;;;;;7.80;1.65;;;2.10;99.90;;;;;;5049473;28;20588;-60
2024/01/18 11:28:25;;;;;;;7.40;1.80;;;1.90;99.90;;;;;;5049646;28;20071;-59
2024/01/18 11:30:52;;;;;;;5.63;1.00;;;1.80;99.90;;;;;;5015961;28;20048;-60
2024/01/18 11:33:18;;;;;;;3.90;0.88;;;2.40;99.90;;;;;;5067201;28;20036;-59
2024/01/18 11:35:44;;;;;;;8.50;1.52;;;2.40;99.90;;;;;;5066749;28;20036;-59
2024/01/18 11:38:32;;;;;;;4.45;0.98;;;1.90;99.90;;;;;;5066104;28;20053;-59
2024/01/18 11:41:22;;;;;;;3.47;0.98;;;3.30;99.90;;;;;;5049363;28;20060;-59
2024/01/18 11:43:54;;;;;;;14.30;1.70;;;2.10;99.90;;;;;;5058105;28;20048;-59
2024/01/18 11:46:39;;;;;;;7.50;0.87;;;2.80;99.90;;;;;;5066401;28;20089;-59
2024/01/18 11:49:05;;;;;;;5.50;0.85;;;2.10;99.90;;;;;;5066636;28;20283;-59
2024/01/18 11:51:32;;;;;;;1.88;0.50;;;2.60;99.90;;;;;;5032216;28;20060;-59
2024/01/18 11:54:00;;;;;;;4.68;0.68;;;2.70;99.90;;;;;;5066776;28;20107;-59
2024/01/18 11:56:27;;;;;;;4.40;0.70;;;2.10;99.90;;;;;;5066788;28;20040;-59
2024/01/18 11:58:54;;;;;;;4.70;0.60;;;2.10;99.90;;;;;;5065148;28;20056;-59
2024/01/18 12:01:20;;;;;;;3.97;0.50;;;2.20;99.90;;;;;;5046931;28;20036;-59
2024/01/18 12:03:47;;;;;;;6.18;0.85;;;2.70;99.90;;;;;;5048266;28;20033;-58
2024/01/18 12:06:14;;;;;;;5.18;1.10;;;2.20;99.90;;;;;;5047739;28;20103;-58
2024/01/18 12:08:40;;;;;;;4.72;0.70;;;2.90;99.90;;;;;;5066194;28;20067;-58
2024/01/18 12:11:07;;;;;;;4.13;0.90;;;2.80;99.90;;;;;;5048547;28;20076;-57
2024/01/18 12:13:33;;;;;;;3.45;1.20;;;2.10;99.90;;;;;;5066300;28;20045;-59
2024/01/18 12:15:59;;;;;;;4.95;0.70;;;2.80;99.90;;;;;;5066432;28;20071;-59
2024/01/18 12:18:25;;;;;;;5.72;0.98;;;2.90;99.90;;;;;;5066426;28;20122;-59
2024/01/18 12:20:51;;;;;;;3.75;0.70;;;2.10;99.90;;;;;;5048126;28;20488;-59
2024/01/18 12:23:17;;;;;;;4.13;0.85;;;2.80;99.90;;;;;;5065400;28;20048;-59
2024/01/18 12:25:46;;;;;;;3.78;0.60;;;2.70;99.90;;;;;;5064975;28;20049;-60
2024/01/18 12:28:11;;;;;;;6.43;0.90;;;2.30;99.90;;;;;;5066157;28;20044;-59
2024/01/18 12:30:42;;;;;;;5.03;0.80;;;2.90;99.90;;;;;;5064110;28;20048;-59
2024/01/18 12:33:09;;;;;;;2.72;0.70;;;2.80;99.90;;;;;;5048415;28;20100;-59
2024/01/18 12:35:38;;;;;;;8.73;0.93;;;2.80;99.90;;;;;;5047348;28;20040;-59
2024/01/18 12:38:04;;;;;;;4.53;0.80;;;2.80;99.90;;;;;;5064439;28;20424;-59
2024/01/18 12:40:30;;;;;;;4.30;1.30;;;2.80;99.90;;;;;;5064077;28;20563;-59
2024/01/18 12:43:02;;;;;;;5.68;1.48;;;2.90;99.90;;;;;;5048083;28;20098;-59
2024/01/18 12:45:28;;;;;;;8.13;1.88;;;2.40;99.90;;;;;;5047869;28;20040;-58
2024/01/18 12:47:55;;;;;;;4.80;1.17;;;3.00;99.90;;;;;;5064674;28;20048;-59